createdAt,value
2022-08-12T00:00:09.076Z,4.43
2022-08-12T00:02:55.175Z,4.30
2022-08-12T00:06:02.017Z,4.43
2022-08-12T00:08:52.386Z,4.30
2022-08-12T00:11:38.756Z,4.47
2022-08-12T00:14:25.549Z,4.47
2022-08-12T00:17:12.014Z,4.50
2022-08-12T00:19:57.964Z,4.60
2022-08-12T00:22:46.729Z,4.47
2022-08-12T00:26:21.426Z,4.70
2022-08-12T00:29:02.105Z,4.33
2022-08-12T00:31:48.100Z,4.63
2022-08-12T00:34:34.786Z,4.60
2022-08-12T00:37:21.554Z,4.37
2022-08-12T00:40:11.377Z,4.50
2022-08-12T00:42:42.013Z,5.10
2022-08-12T00:45:11.590Z,4.67
2022-08-12T00:47:40.792Z,4.20
2022-08-12T00:50:17.723Z,4.70
2022-08-12T00:52:46.935Z,5.00
2022-08-12T00:55:20.347Z,5.57
2022-08-12T00:57:50.757Z,4.53
2022-08-12T01:00:22.723Z,4.97
2022-08-12T01:02:57.641Z,5.37
2022-08-12T01:05:45.209Z,5.17
2022-08-12T01:08:42.917Z,4.87
2022-08-12T01:11:32.837Z,5.43
2022-08-12T01:14:03.426Z,5.50
2022-08-12T01:16:31.850Z,5.47
2022-08-12T01:19:01.052Z,5.33
2022-08-12T01:21:58.766Z,5.73
2022-08-12T01:24:56.010Z,5.47
2022-08-12T01:27:25.755Z,5.60
2022-08-12T01:29:55.503Z,5.87
2022-08-12T01:32:25.057Z,5.93
2022-08-12T01:35:02.951Z,5.70
2022-08-12T01:37:36.629Z,5.80
2022-08-12T01:40:35.436Z,5.30
2022-08-12T01:43:11.712Z,6.10
2022-08-12T01:46:04.570Z,6.13
2022-08-12T01:48:53.757Z,5.80
2022-08-12T01:52:16.459Z,5.67
2022-08-12T01:54:28.900Z,6.10
2022-08-12T01:57:10.958Z,6.23
2022-08-12T01:59:49.649Z,6.90
2022-08-12T02:02:23.519Z,5.90
2022-08-12T02:05:23.488Z,6.03
2022-08-12T02:08:34.369Z,5.63
2022-08-12T02:11:19.994Z,6.13
2022-08-12T02:14:20.311Z,7.13
2022-08-12T02:17:05.242Z,6.83
2022-08-12T02:19:49.547Z,5.87
2022-08-12T02:22:29.411Z,6.47
2022-08-12T02:25:08.786Z,7.33
2022-08-12T02:27:45.602Z,6.23
2022-08-12T02:30:19.276Z,6.77
2022-08-12T02:32:51.576Z,6.77
2022-08-12T02:35:22.981Z,6.67
2022-08-12T02:37:53.994Z,6.00
2022-08-12T02:40:24.217Z,7.20
2022-08-12T02:42:56.882Z,6.50
2022-08-12T02:45:34.630Z,6.67
2022-08-12T02:48:10.480Z,6.57
2022-08-12T02:50:46.935Z,6.93
2022-08-12T02:53:16.404Z,7.00
2022-08-12T02:55:46.744Z,7.20
2022-08-12T02:58:15.844Z,7.33
2022-08-12T03:00:49.712Z,6.40
2022-08-12T03:03:20.636Z,6.60
2022-08-12T03:06:02.590Z,7.40
2022-08-12T03:08:39.757Z,7.77
2022-08-12T03:11:16.968Z,8.33
2022-08-12T03:13:52.063Z,7.37
2022-08-12T03:16:23.211Z,7.23
2022-08-12T03:18:52.222Z,6.77
2022-08-12T03:21:53.159Z,7.10
2022-08-12T03:24:11.534Z,7.30
2022-08-12T03:26:39.810Z,6.83
2022-08-12T03:29:08.594Z,7.23
2022-08-12T03:31:38.151Z,8.17
2022-08-12T03:34:11.967Z,8.30
2022-08-12T03:36:42.539Z,7.73
2022-08-12T03:39:35.995Z,6.60
2022-08-12T03:42:17.222Z,6.90
2022-08-12T03:45:14.206Z,6.77
2022-08-12T03:48:08.251Z,7.93
2022-08-12T03:50:55.901Z,7.90
2022-08-12T03:53:45.835Z,7.23
2022-08-12T03:56:32.167Z,7.53
2022-08-12T03:59:20.707Z,7.77
2022-08-12T04:01:55.202Z,8.03
2022-08-12T04:04:26.778Z,7.30
2022-08-12T04:06:57.951Z,8.13
2022-08-12T04:09:26.518Z,7.50
2022-08-12T04:12:12.330Z,7.67
2022-08-12T04:14:40.630Z,7.00
2022-08-12T04:17:09.386Z,7.30
2022-08-12T04:19:39.416Z,7.50
2022-08-12T04:22:07.532Z,7.20
2022-08-12T04:24:36.833Z,7.57
2022-08-12T04:27:12.370Z,7.97
2022-08-12T04:30:21.111Z,7.50
2022-08-12T04:32:29.851Z,7.73
2022-08-12T04:34:59.296Z,7.33
2022-08-12T04:37:27.696Z,7.37
2022-08-12T04:39:56.373Z,6.93
2022-08-12T04:42:25.466Z,7.53
2022-08-12T04:44:54.081Z,6.90
2022-08-12T04:47:24.620Z,7.30
2022-08-12T04:49:53.007Z,6.67
2022-08-12T04:52:23.934Z,7.07
2022-08-12T04:54:53.249Z,6.77
2022-08-12T04:57:21.380Z,6.93
2022-08-12T04:59:49.577Z,6.20
2022-08-12T05:02:21.599Z,7.10
2022-08-12T05:04:53.078Z,6.67
2022-08-12T05:07:23.980Z,6.30
2022-08-12T05:09:58.981Z,6.80
2022-08-12T05:12:37.183Z,7.13
2022-08-12T05:15:27.704Z,7.00
2022-08-12T05:18:00.254Z,6.80
2022-08-12T05:20:30.902Z,6.70
2022-08-12T05:23:13.376Z,6.90
2022-08-12T05:25:43.293Z,7.07
2022-08-12T05:28:13.036Z,7.20
2022-08-12T05:30:43.858Z,7.33
2022-08-12T05:33:15.548Z,7.10
2022-08-12T05:35:47.678Z,6.60
2022-08-12T05:38:39.709Z,6.77
2022-08-12T05:41:19.106Z,6.97
2022-08-12T05:43:51.151Z,6.57
2022-08-12T05:46:20.170Z,6.00
2022-08-12T05:48:49.650Z,6.00
2022-08-12T05:51:18.813Z,5.80
2022-08-12T05:53:48.431Z,6.30
2022-08-12T05:56:27.002Z,5.93
2022-08-12T05:58:56.019Z,6.30
2022-08-12T06:02:11.560Z,5.87
2022-08-12T06:04:16.878Z,5.90
2022-08-12T06:06:51.287Z,5.43
2022-08-12T06:09:22.419Z,5.83
2022-08-12T06:12:04.253Z,6.00
2022-08-12T06:14:36.534Z,5.93
2022-08-12T06:17:07.506Z,5.53
2022-08-12T06:20:27.547Z,5.47
2022-08-12T06:22:26.634Z,5.23
2022-08-12T06:24:56.161Z,5.13
2022-08-12T06:27:24.355Z,5.37
2022-08-12T06:30:08.907Z,4.70
2022-08-12T06:32:51.687Z,4.80
2022-08-12T06:35:47.916Z,4.80
2022-08-12T06:38:19.588Z,4.93
2022-08-12T06:41:11.940Z,4.63
2022-08-12T06:44:06.922Z,4.53
2022-08-12T06:46:30.526Z,5.07
2022-08-12T06:48:59.809Z,5.00
2022-08-12T06:51:30.314Z,5.23
2022-08-12T06:53:59.187Z,4.60
2022-08-12T06:56:59.770Z,5.67
2022-08-12T06:59:17.418Z,4.90
2022-08-12T07:01:51.369Z,5.07
2022-08-12T07:04:38.369Z,5.13
2022-08-12T07:07:08.663Z,4.97
2022-08-12T07:10:01.263Z,4.50
2022-08-12T07:12:27.774Z,4.37
2022-08-12T07:14:57.639Z,4.83
2022-08-12T07:17:26.074Z,4.53
2022-08-12T07:19:58.042Z,4.70
2022-08-12T07:22:28.750Z,4.77
2022-08-12T07:25:10.850Z,4.40
2022-08-12T07:27:42.276Z,4.65
2022-08-12T07:30:12.127Z,4.93
2022-08-12T07:32:40.387Z,4.70
2022-08-12T07:35:09.662Z,4.90
2022-08-12T07:37:42.558Z,4.40
2022-08-12T07:40:12.103Z,4.32
2022-08-12T07:42:43.596Z,4.50
2022-08-12T07:45:12.740Z,4.40
2022-08-12T07:47:43.302Z,5.22
2022-08-12T07:50:12.648Z,5.95
2022-08-12T07:52:44.184Z,4.47
2022-08-12T07:55:14.201Z,4.32
2022-08-12T07:57:59.223Z,4.22
2022-08-12T08:00:30.114Z,4.10
2022-08-12T08:02:58.844Z,4.40
2022-08-12T08:05:31.734Z,4.10
2022-08-12T08:08:02.310Z,4.47
2022-08-12T08:10:31.992Z,4.15
2022-08-12T08:13:05.025Z,4.22
2022-08-12T08:16:01.381Z,4.03
2022-08-12T08:18:27.593Z,4.40
2022-08-12T08:20:57.609Z,4.40
2022-08-12T08:23:56.545Z,5.10
2022-08-12T08:26:28.679Z,4.43
2022-08-12T08:28:59.573Z,4.05
2022-08-12T08:31:27.860Z,4.13
2022-08-12T08:34:05.273Z,4.07
2022-08-12T08:36:39.649Z,4.47
2022-08-12T08:39:08.077Z,4.10
2022-08-12T08:42:19.028Z,4.07
2022-08-12T08:44:43.883Z,3.95
2022-08-12T08:47:15.695Z,4.43
2022-08-12T08:49:43.857Z,4.10
2022-08-12T08:52:12.616Z,4.50
2022-08-12T08:55:02.885Z,4.50
2022-08-12T08:57:42.911Z,4.78
2022-08-12T09:00:17.391Z,4.07
2022-08-12T09:08:27.683Z,3.53
2022-08-12T09:10:59.806Z,4.00
2022-08-12T09:14:10.453Z,3.85
2022-08-12T09:16:24.001Z,3.70
2022-08-12T09:18:53.816Z,3.80
2022-08-12T09:21:23.399Z,3.80
2022-08-12T09:24:05.645Z,4.30
2022-08-12T09:26:46.578Z,4.13
2022-08-12T09:29:15.480Z,4.13
2022-08-12T09:32:02.803Z,5.00
2022-08-12T09:34:36.292Z,5.05
2022-08-12T09:37:19.295Z,4.70
2022-08-12T09:40:06.398Z,4.25
2022-08-12T09:46:21.186Z,3.60
2022-08-12T09:48:40.228Z,3.30
2022-08-12T09:51:21.876Z,3.55
2022-08-12T09:54:08.814Z,4.47
2022-08-12T09:56:58.551Z,3.53
2022-08-12T10:00:15.154Z,4.18
2022-08-12T10:02:44.708Z,3.45
2022-08-12T10:05:13.254Z,3.50
2022-08-12T10:07:42.261Z,4.47
2022-08-12T10:10:25.079Z,3.88
2022-08-12T10:13:36.006Z,3.55
2022-08-12T10:16:21.803Z,3.40
2022-08-12T10:18:53.718Z,3.65
2022-08-12T10:21:36.290Z,3.63
2022-08-12T10:24:09.356Z,3.25
2022-08-12T10:26:57.724Z,3.30
2022-08-12T10:30:03.067Z,3.08
2022-08-12T10:32:44.546Z,2.70
2022-08-12T10:35:16.979Z,2.90
2022-08-12T10:38:33.436Z,3.45
2022-08-12T10:40:55.679Z,3.90
2022-08-12T10:43:55.978Z,3.53
2022-08-12T10:46:30.373Z,3.28
2022-08-12T10:49:05.333Z,3.33
2022-08-12T10:51:51.515Z,3.00
2022-08-12T10:54:27.627Z,3.08
2022-08-12T10:56:57.771Z,3.00
2022-08-12T11:00:01.484Z,2.55
2022-08-12T11:04:27.681Z,2.80
2022-08-12T11:07:02.036Z,2.80
2022-08-12T11:08:36.997Z,3.00
2022-08-12T11:10:42.397Z,2.80
2022-08-12T11:13:13.864Z,2.53
2022-08-12T11:16:04.095Z,3.10
2022-08-12T11:18:30.707Z,2.47
2022-08-12T11:21:00.992Z,2.35
2022-08-12T11:23:36.781Z,2.70
2022-08-12T11:26:08.324Z,2.58
2022-08-12T11:28:38.484Z,2.63
2022-08-12T11:31:13.263Z,2.50
2022-08-12T11:34:04.239Z,2.55
2022-08-12T11:36:32.306Z,2.20
2022-08-12T11:39:07.924Z,2.10
2022-08-12T11:41:43.083Z,2.20
2022-08-12T11:44:36.782Z,1.98
2022-08-12T11:46:59.933Z,2.35
2022-08-12T11:49:32.366Z,2.60
2022-08-12T11:52:27.247Z,2.45
2022-08-12T11:54:54.352Z,2.35
2022-08-12T11:58:42.266Z,2.13
2022-08-12T12:03:02.602Z,2.40
2022-08-12T12:05:41.640Z,1.90
2022-08-12T12:08:38.851Z,2.35
2022-08-12T12:11:10.036Z,2.42
2022-08-12T12:14:08.031Z,2.20
2022-08-12T12:16:29.958Z,2.65
2022-08-12T12:18:58.246Z,2.10
2022-08-12T12:21:47.972Z,2.65
2022-08-12T12:24:14.509Z,2.15
2022-08-12T12:26:59.582Z,2.30
2022-08-12T12:30:19.169Z,2.30
2022-08-12T12:32:28.864Z,2.00
2022-08-12T12:35:14.334Z,2.33
2022-08-12T12:38:04.463Z,2.50
2022-08-12T12:40:43.856Z,2.38
2022-08-12T12:43:12.901Z,2.25
2022-08-12T12:45:46.382Z,2.13
2022-08-12T12:48:15.986Z,2.10
2022-08-12T12:50:51.611Z,2.08
2022-08-12T12:54:05.091Z,2.47
2022-08-12T12:56:16.529Z,2.20
2022-08-12T12:58:44.922Z,1.95
2022-08-12T13:01:26.610Z,2.75
2022-08-12T13:04:01.882Z,2.10
2022-08-12T13:06:31.981Z,2.22
2022-08-12T13:09:03.260Z,2.42
2022-08-12T13:11:40.775Z,2.45
2022-08-12T13:14:28.821Z,2.13
2022-08-12T13:17:02.598Z,2.22
2022-08-12T13:19:37.596Z,2.30
2022-08-12T13:22:21.034Z,1.98
2022-08-12T13:24:55.663Z,2.03
2022-08-12T13:27:34.861Z,2.00
2022-08-12T13:30:11.688Z,2.00
2022-08-12T13:32:43.632Z,2.00
2022-08-12T13:35:33.474Z,2.13
2022-08-12T13:38:13.966Z,1.95
2022-08-12T13:40:42.207Z,1.88
2022-08-12T13:43:40.613Z,2.05
2022-08-12T13:46:09.324Z,2.08
2022-08-12T13:48:45.302Z,2.00
2022-08-12T13:51:14.187Z,2.25
2022-08-12T13:53:58.910Z,2.40
2022-08-12T13:56:35.131Z,2.10
2022-08-12T13:59:07.737Z,2.05
2022-08-12T14:01:40.557Z,2.20
2022-08-12T14:04:11.563Z,2.40
2022-08-12T14:06:40.699Z,2.55
2022-08-12T14:09:15.706Z,2.50
2022-08-12T14:11:54.817Z,2.85
2022-08-12T14:14:31.596Z,2.35
2022-08-12T14:17:08.155Z,2.00
2022-08-12T14:20:00.561Z,2.05
2022-08-12T14:22:28.968Z,1.83
2022-08-12T14:25:00.527Z,2.33
2022-08-12T14:27:55.453Z,2.10
2022-08-12T14:30:29.392Z,1.85
2022-08-12T14:33:02.899Z,2.03
2022-08-12T14:35:41.311Z,1.70
2022-08-12T14:38:25.938Z,2.20
2022-08-12T14:40:58.565Z,1.98
2022-08-12T14:43:59.323Z,1.80
2022-08-12T14:46:24.004Z,1.98
2022-08-12T14:48:55.908Z,2.67
2022-08-12T14:52:48.247Z,3.15
2022-08-12T14:57:20.570Z,2.53
2022-08-12T15:00:09.224Z,2.22
2022-08-12T15:02:39.356Z,2.03
2022-08-12T15:05:08.305Z,1.98
2022-08-12T15:07:49.989Z,2.00
2022-08-12T15:10:32.029Z,2.08
2022-08-12T15:13:06.780Z,2.03
2022-08-12T15:15:44.263Z,2.00
2022-08-12T15:18:21.348Z,2.20
2022-08-12T15:20:51.302Z,2.10
2022-08-12T15:23:24.480Z,2.00
2022-08-12T15:26:02.498Z,2.22
2022-08-12T15:28:34.931Z,2.50
2022-08-12T15:31:21.319Z,2.40
2022-08-12T15:33:55.212Z,2.65
2022-08-12T15:36:54.962Z,2.45
2022-08-12T15:39:17.014Z,2.00
2022-08-12T15:41:50.004Z,2.10
2022-08-12T15:44:42.169Z,2.08
2022-08-12T15:47:09.035Z,1.80
2022-08-12T15:49:54.131Z,2.00
2022-08-12T15:52:28.507Z,2.70
2022-08-12T15:55:06.154Z,2.63
2022-08-12T15:57:53.615Z,2.97
2022-08-12T16:00:33.383Z,2.65
2022-08-12T16:03:05.366Z,2.60
2022-08-12T16:06:12.030Z,2.70
2022-08-12T16:08:27.700Z,2.20
2022-08-12T16:10:57.809Z,2.50
2022-08-12T16:13:34.229Z,2.22
2022-08-12T16:16:22.812Z,2.20
2022-08-12T16:18:59.616Z,2.53
2022-08-12T16:21:52.421Z,2.15
2022-08-12T16:24:18.525Z,2.10
2022-08-12T16:26:51.526Z,2.08
2022-08-12T16:29:26.392Z,2.30
2022-08-12T16:31:58.558Z,2.05
2022-08-12T16:34:42.464Z,2.30
2022-08-12T16:37:15.993Z,2.10
2022-08-12T16:39:59.710Z,2.30
2022-08-12T16:42:31.036Z,2.20
2022-08-12T16:45:02.685Z,2.10
2022-08-12T16:47:57.660Z,2.30
2022-08-12T16:50:31.258Z,2.58
2022-08-12T16:53:02.449Z,2.13
2022-08-12T16:55:42.429Z,1.90
2022-08-12T16:58:28.534Z,2.20
2022-08-12T17:01:01.963Z,2.30
2022-08-12T17:03:36.680Z,2.10
2022-08-12T17:06:08.993Z,2.63
2022-08-12T17:08:39.270Z,2.50
2022-08-12T17:11:18.011Z,2.30
2022-08-12T17:13:53.609Z,2.05
2022-08-12T17:16:24.162Z,2.30
2022-08-12T17:18:59.731Z,2.03
2022-08-12T17:21:41.674Z,2.30
2022-08-12T17:24:30.573Z,1.80
2022-08-12T17:27:00.803Z,2.10
2022-08-12T17:30:00.366Z,2.30
2022-08-12T17:32:28.021Z,2.13
2022-08-12T17:35:14.517Z,2.10
2022-08-12T17:37:42.999Z,2.00
2022-08-12T17:40:20.791Z,2.08
2022-08-12T17:43:03.140Z,1.90
2022-08-12T17:45:53.282Z,2.28
2022-08-12T17:48:24.030Z,2.13
2022-08-12T17:51:06.978Z,2.00
2022-08-12T17:54:06.150Z,2.00
2022-08-12T17:56:31.961Z,2.05
2022-08-12T17:59:01.628Z,1.98
2022-08-12T18:01:35.675Z,2.03
2022-08-12T18:04:21.619Z,2.10
2022-08-12T18:06:51.731Z,2.20
2022-08-12T18:09:21.806Z,1.90
2022-08-12T18:12:11.771Z,1.90
2022-08-12T18:14:41.113Z,2.10
2022-08-12T18:17:13.860Z,1.90
2022-08-12T18:20:04.358Z,1.98
2022-08-12T18:22:32.954Z,2.05
2022-08-12T18:25:04.764Z,2.30
2022-08-12T18:27:44.164Z,2.13
2022-08-12T18:30:20.943Z,2.50
2022-08-12T18:33:03.893Z,2.05
2022-08-12T18:35:47.572Z,2.20
2022-08-12T18:38:25.093Z,2.10
2022-08-12T18:41:21.950Z,2.25
2022-08-12T18:43:59.908Z,2.65
2022-08-12T18:46:35.750Z,2.90
2022-08-12T18:49:18.959Z,2.72
2022-08-12T18:52:03.817Z,2.30
2022-08-12T18:54:36.357Z,2.80
2022-08-12T18:57:16.595Z,2.80
2022-08-12T19:00:01.681Z,3.85
2022-08-12T19:02:39.627Z,3.08
2022-08-12T19:05:12.314Z,3.15
2022-08-12T19:07:57.909Z,2.80
2022-08-12T19:10:30.961Z,2.67
2022-08-12T19:13:23.004Z,2.70
2022-08-12T19:15:54.316Z,2.63
2022-08-12T19:18:29.880Z,2.90
2022-08-12T19:21:11.621Z,3.00
2022-08-12T19:23:40.661Z,3.03
2022-08-12T19:26:10.717Z,2.90
2022-08-12T19:28:42.708Z,2.70
2022-08-12T19:31:44.889Z,2.60
2022-08-12T19:35:06.590Z,2.78
2022-08-12T19:37:26.622Z,2.70
2022-08-12T19:40:09.104Z,3.00
2022-08-12T19:42:53.368Z,2.67
2022-08-12T19:45:22.450Z,2.60
2022-08-12T19:47:50.718Z,2.70
2022-08-12T19:50:20.012Z,2.63
2022-08-12T19:52:51.199Z,2.50
2022-08-12T19:55:24.153Z,2.85
2022-08-12T19:58:01.453Z,2.60
2022-08-12T20:00:34.538Z,2.42
2022-08-12T20:03:06.376Z,2.60
2022-08-12T20:06:05.076Z,2.63
2022-08-12T20:08:34.351Z,2.38
2022-08-12T20:12:11.083Z,2.80
2022-08-12T20:13:57.979Z,2.50
2022-08-12T20:16:57.427Z,2.25
2022-08-12T20:19:52.770Z,2.78
2022-08-12T20:22:24.816Z,2.40
2022-08-12T20:25:01.676Z,3.05
2022-08-12T20:28:02.750Z,2.80
2022-08-12T20:30:37.822Z,3.00
2022-08-12T20:33:19.144Z,2.80
2022-08-12T20:36:13.289Z,2.67
2022-08-12T20:38:47.750Z,2.67
2022-08-12T20:41:19.477Z,2.47
2022-08-12T20:43:50.382Z,2.47
2022-08-12T20:46:19.452Z,2.95
2022-08-12T20:48:54.293Z,2.67
2022-08-12T20:51:23.746Z,2.80
2022-08-12T20:53:59.099Z,2.60
2022-08-12T20:56:34.614Z,2.78
2022-08-12T20:59:05.961Z,2.40
2022-08-12T21:01:47.589Z,2.67
2022-08-12T21:04:44.247Z,2.78
2022-08-12T21:07:13.916Z,3.53
2022-08-12T21:09:47.505Z,3.30
2022-08-12T21:12:31.517Z,3.63
2022-08-12T21:15:24.175Z,3.33
2022-08-12T21:18:11.663Z,3.13
2022-08-12T21:20:53.073Z,2.88
2022-08-12T21:23:23.412Z,3.15
2022-08-12T21:25:52.438Z,3.17
2022-08-12T21:28:30.719Z,2.88
2022-08-12T21:32:37.727Z,3.20
2022-08-12T21:34:07.260Z,3.10
2022-08-12T21:36:43.057Z,3.47
2022-08-12T21:39:18.445Z,3.50
2022-08-12T21:41:51.513Z,3.03
2022-08-12T21:44:32.515Z,3.10
2022-08-12T21:47:19.945Z,3.47
2022-08-12T21:49:55.246Z,3.47
2022-08-12T21:52:34.949Z,3.28
2022-08-12T21:55:20.165Z,2.85
2022-08-12T21:57:53.555Z,3.10
2022-08-12T22:00:31.798Z,3.35
2022-08-12T22:03:25.075Z,3.25
2022-08-12T22:06:31.304Z,3.30
2022-08-12T22:09:16.437Z,3.30
2022-08-12T22:11:49.378Z,3.23
2022-08-12T22:14:28.381Z,3.10
2022-08-12T22:17:01.399Z,3.40
2022-08-12T22:19:33.733Z,3.40
2022-08-12T22:22:05.098Z,3.63
2022-08-12T22:24:33.822Z,4.07
2022-08-12T22:27:14.427Z,5.00
2022-08-12T22:30:16.895Z,3.70
2022-08-12T22:32:49.999Z,3.90
2022-08-12T22:35:55.636Z,3.80
2022-08-12T22:38:26.347Z,3.37
2022-08-12T22:40:58.389Z,3.77
2022-08-12T22:43:59.599Z,3.53
2022-08-12T22:46:53.552Z,3.67
2022-08-12T22:49:26.044Z,4.00
2022-08-12T22:52:13.509Z,3.63
2022-08-12T22:54:57.996Z,3.87
2022-08-12T22:57:53.851Z,4.27
2022-08-12T23:00:27.581Z,4.40
2022-08-12T23:03:02.896Z,3.70
2022-08-12T23:05:57.275Z,4.17
2022-08-12T23:08:31.869Z,4.57
2022-08-12T23:11:00.561Z,4.03
2022-08-12T23:13:54.654Z,4.50
2022-08-12T23:16:29.235Z,5.20
2022-08-12T23:19:09.629Z,5.33
2022-08-12T23:22:04.465Z,6.17
2022-08-12T23:24:31.614Z,6.73
2022-08-12T23:27:22.385Z,5.97
2022-08-12T23:30:17.613Z,5.80
2022-08-12T23:32:38.942Z,5.83
2022-08-12T23:35:08.675Z,5.80
2022-08-12T23:37:47.783Z,5.87
2022-08-12T23:40:24.288Z,6.17
2022-08-12T23:42:54.310Z,5.40
2022-08-12T23:45:31.602Z,6.03
2022-08-12T23:48:02.751Z,6.30
2022-08-12T23:50:33.818Z,6.03
2022-08-12T23:53:14.032Z,5.77
2022-08-12T23:55:45.618Z,6.03
2022-08-12T23:58:21.614Z,6.60
